createdAt,value
2019-06-26T00:01:23.823Z,99141.56
2019-06-26T00:03:57.651Z,99135.62
2019-06-26T00:06:31.424Z,99133.44
2019-06-26T00:09:06.641Z,99131.24
2019-06-26T00:11:40.522Z,99129.89
2019-06-26T00:14:21.461Z,99134.27
2019-06-26T00:16:55.291Z,99122.08
2019-06-26T00:19:29.119Z,99126.14
2019-06-26T00:22:03.001Z,99118.35
2019-06-26T00:24:37.858Z,99119.70
2019-06-26T00:27:11.699Z,99119.88
2019-06-26T00:29:45.479Z,99117.17
2019-06-26T00:32:19.183Z,99110.92
2019-06-26T00:34:52.983Z,99112.06
2019-06-26T00:37:26.595Z,99113.94
2019-06-26T00:40:00.387Z,99116.34
2019-06-26T00:42:34.040Z,99114.28
2019-06-26T00:45:07.939Z,99112.59
2019-06-26T00:47:41.742Z,99118.84
2019-06-26T00:50:17.266Z,99122.08
2019-06-26T00:52:50.993Z,99111.44
2019-06-26T00:55:24.721Z,99119.05
2019-06-26T00:57:58.437Z,99115.82
2019-06-26T01:00:40.682Z,99115.30
2019-06-26T01:03:14.411Z,99113.94
2019-06-26T01:05:48.191Z,99115.50
2019-06-26T01:08:22.235Z,99115.50
2019-06-26T01:10:55.965Z,99112.97
2019-06-26T01:13:29.685Z,99107.42
2019-06-26T01:16:03.410Z,99119.09
2019-06-26T01:18:37.142Z,99111.35
2019-06-26T01:21:11.312Z,99112.78
2019-06-26T01:23:45.075Z,99112.44
2019-06-26T01:26:18.840Z,99115.84
2019-06-26T01:28:52.880Z,99111.78
2019-06-26T01:31:26.721Z,99108.58
2019-06-26T01:34:00.453Z,99106.01
2019-06-26T01:39:07.602Z,99107.29
2019-06-26T01:41:42.114Z,99105.23
2019-06-26T01:44:15.897Z,99103.36
2019-06-26T01:46:49.663Z,99096.89
2019-06-26T01:49:23.405Z,99099.30
2019-06-26T01:51:57.061Z,99101.34
2019-06-26T01:54:30.779Z,99097.11
2019-06-26T01:57:04.497Z,99097.11
2019-06-26T01:59:38.331Z,99097.94
2019-06-26T02:02:12.363Z,99098.77
2019-06-26T02:04:46.083Z,99102.52
2019-06-26T02:07:19.881Z,99094.09
2019-06-26T02:09:53.613Z,99090.72
2019-06-26T02:12:27.330Z,99099.16
2019-06-26T02:15:03.219Z,99092.38
2019-06-26T02:17:36.967Z,99092.38
2019-06-26T02:20:10.701Z,99090.02
2019-06-26T02:22:44.452Z,99084.91
2019-06-26T02:25:18.406Z,99091.69
2019-06-26T02:27:52.182Z,99092.73
2019-06-26T02:30:25.925Z,99089.75
2019-06-26T02:32:59.720Z,99086.30
2019-06-26T02:35:33.606Z,99090.22
2019-06-26T02:38:07.478Z,99090.57
2019-06-26T02:40:42.914Z,99088.66
2019-06-26T02:43:16.724Z,99093.16
2019-06-26T02:45:50.363Z,99093.69
2019-06-26T02:48:24.126Z,99093.69
2019-06-26T02:50:58.091Z,99091.80
2019-06-26T02:53:31.740Z,99087.40
2019-06-26T02:56:05.387Z,99093.34
2019-06-26T02:58:40.196Z,99095.91
2019-06-26T03:01:15.556Z,99089.26
2019-06-26T03:03:49.379Z,99086.16
2019-06-26T03:06:23.115Z,99086.30
2019-06-26T03:08:56.966Z,99092.20
2019-06-26T03:11:30.821Z,99086.25
2019-06-26T03:14:04.595Z,99089.80
2019-06-26T03:16:38.313Z,99092.20
2019-06-26T03:19:13.441Z,99096.57
2019-06-26T03:21:47.178Z,99097.22
2019-06-26T03:24:20.982Z,99092.12
2019-06-26T03:26:54.881Z,99097.02
2019-06-26T03:29:28.734Z,99095.52
2019-06-26T03:32:02.461Z,99099.14
2019-06-26T03:34:36.180Z,99091.92
2019-06-26T03:37:09.902Z,99095.51
2019-06-26T03:39:43.725Z,99094.88
2019-06-26T03:42:17.502Z,99097.34
2019-06-26T03:44:52.737Z,99107.14
2019-06-26T03:47:26.506Z,99106.61
2019-06-26T03:50:00.268Z,99098.17
2019-06-26T03:52:34.060Z,99106.82
2019-06-26T03:55:07.785Z,99105.26
2019-06-26T03:57:41.519Z,99101.33
2019-06-26T04:00:15.249Z,99099.48
2019-06-26T04:02:49.035Z,99111.16
2019-06-26T04:05:22.933Z,99101.98
2019-06-26T04:07:56.736Z,99105.53
2019-06-26T04:10:30.647Z,99107.41
2019-06-26T04:13:05.414Z,99105.88
2019-06-26T04:15:42.521Z,99105.35
2019-06-26T04:18:16.583Z,99105.14
2019-06-26T04:20:50.221Z,99114.97
2019-06-26T04:23:23.994Z,99104.66
2019-06-26T04:25:57.733Z,99108.72
2019-06-26T04:28:32.027Z,99114.45
2019-06-26T04:31:05.728Z,99107.02
2019-06-26T04:33:39.594Z,99105.66
2019-06-26T04:36:15.173Z,99106.19
2019-06-26T04:38:48.826Z,99106.19
2019-06-26T04:41:22.989Z,99104.52
2019-06-26T04:43:56.721Z,99106.70
2019-06-26T04:46:30.472Z,99107.23
2019-06-26T04:49:04.164Z,99108.38
2019-06-26T04:51:37.920Z,99105.14
2019-06-26T04:54:11.656Z,99102.95
2019-06-26T04:56:45.576Z,99109.20
2019-06-26T04:59:19.368Z,99106.19
2019-06-26T05:01:53.119Z,99108.38
2019-06-26T05:04:27.044Z,99107.36
2019-06-26T05:07:00.717Z,99105.14
2019-06-26T05:09:34.434Z,99104.66
2019-06-26T05:12:08.184Z,99111.73
2019-06-26T05:14:41.926Z,99108.51
2019-06-26T05:17:15.878Z,99108.33
2019-06-26T05:19:49.603Z,99113.75
2019-06-26T05:22:23.478Z,99114.41
2019-06-26T05:24:57.125Z,99110.52
2019-06-26T05:27:30.854Z,99114.06
2019-06-26T05:30:05.557Z,99111.04
2019-06-26T05:32:39.273Z,99110.13
2019-06-26T05:35:12.986Z,99105.02
2019-06-26T05:37:46.733Z,99108.00
2019-06-26T05:40:20.445Z,99109.56
2019-06-26T05:42:54.144Z,99117.48
2019-06-26T05:45:27.853Z,99111.93
2019-06-26T05:48:01.486Z,99113.62
2019-06-26T05:50:35.331Z,99113.29
2019-06-26T05:53:09.073Z,99114.59
2019-06-26T05:55:43.129Z,99112.59
2019-06-26T05:58:18.063Z,99114.28
2019-06-26T06:00:52.008Z,99110.84
2019-06-26T06:03:25.877Z,99117.31
2019-06-26T06:05:59.632Z,99120.33
2019-06-26T06:08:33.421Z,99117.13
2019-06-26T06:11:07.229Z,99115.77
2019-06-26T06:13:40.954Z,99120.46
2019-06-26T06:16:14.698Z,99120.28
2019-06-26T06:18:48.466Z,99123.13
2019-06-26T06:21:22.704Z,99121.12
2019-06-26T06:23:56.446Z,99123.91
2019-06-26T06:26:30.124Z,99124.73
2019-06-26T06:29:04.032Z,99124.73
2019-06-26T06:31:37.973Z,99120.33
2019-06-26T06:34:11.934Z,99118.66
2019-06-26T06:36:45.907Z,99126.61
2019-06-26T06:39:20.828Z,99126.09
2019-06-26T06:41:55.111Z,99122.86
2019-06-26T06:44:28.843Z,99120.67
2019-06-26T06:47:04.581Z,99119.11
2019-06-26T06:49:38.628Z,99120.33
2019-06-26T06:52:16.610Z,99120.33
2019-06-26T06:54:50.774Z,99115.56
2019-06-26T06:57:25.072Z,99122.03
2019-06-26T06:59:58.819Z,99117.62
2019-06-26T07:02:33.297Z,99111.19
2019-06-26T07:05:07.444Z,99108.61
2019-06-26T07:07:41.364Z,99106.87
2019-06-26T07:10:15.296Z,99104.98
2019-06-26T07:12:49.212Z,99102.67
2019-06-26T07:15:24.138Z,99108.02
2019-06-26T07:17:58.290Z,99108.02
2019-06-26T07:20:32.498Z,99104.73
2019-06-26T07:23:06.651Z,99105.77
2019-06-26T07:25:40.557Z,99102.41
2019-06-26T07:28:14.688Z,99106.47
2019-06-26T07:30:48.778Z,99098.65
2019-06-26T07:33:23.253Z,99103.89
2019-06-26T07:35:57.568Z,99103.45
2019-06-26T07:38:31.696Z,99099.00
2019-06-26T07:41:05.904Z,99098.66
2019-06-26T07:43:39.740Z,99095.06
2019-06-26T07:54:07.506Z,99102.72
2019-06-26T07:56:41.237Z,99105.83
2019-06-26T07:59:14.917Z,99093.50
2019-06-26T08:01:48.817Z,99099.13
2019-06-26T08:04:22.581Z,99101.76
2019-06-26T08:06:56.408Z,99105.52
2019-06-26T08:09:30.223Z,99103.12
2019-06-26T08:12:04.020Z,99102.98
2019-06-26T08:14:37.861Z,99101.05
2019-06-26T08:17:12.114Z,99105.17
2019-06-26T08:19:45.976Z,99091.75
2019-06-26T08:22:20.235Z,99096.32
2019-06-26T08:24:53.976Z,99089.33
2019-06-26T08:27:27.745Z,99093.76
2019-06-26T08:30:01.916Z,99090.08
2019-06-26T08:32:35.755Z,99087.25
2019-06-26T08:35:10.009Z,99076.53
2019-06-26T08:37:43.700Z,99078.84
2019-06-26T08:40:18.456Z,99077.23
2019-06-26T08:42:52.184Z,99079.68
2019-06-26T08:45:26.075Z,99081.20
2019-06-26T08:48:16.389Z,99076.84
2019-06-26T08:50:35.324Z,99073.06
2019-06-26T08:53:09.127Z,99070.44
2019-06-26T08:55:42.987Z,99079.58
2019-06-26T08:58:16.885Z,99075.86
2019-06-26T09:00:50.571Z,99072.44
2019-06-26T09:03:24.287Z,99067.84
2019-06-26T09:06:03.636Z,99067.77
2019-06-26T09:08:44.953Z,99067.72
2019-06-26T09:11:27.358Z,99063.82
2019-06-26T09:14:09.214Z,99065.52
2019-06-26T09:16:44.209Z,99059.70
2019-06-26T09:19:18.684Z,99067.31
2019-06-26T09:21:52.641Z,99065.13
2019-06-26T09:24:26.585Z,99062.81
2019-06-26T09:27:00.343Z,99061.77
2019-06-26T09:29:36.181Z,99063.55
2019-06-26T09:32:10.429Z,99054.33
2019-06-26T09:34:44.149Z,99062.07
2019-06-26T09:37:18.015Z,99054.46
2019-06-26T09:39:52.934Z,99056.73
2019-06-26T09:42:26.640Z,99052.33
2019-06-26T09:45:00.911Z,99048.66
2019-06-26T09:47:34.793Z,99049.69
2019-06-26T09:50:08.556Z,99045.31
2019-06-26T09:52:42.315Z,99039.98
2019-06-26T09:55:16.964Z,99037.21
2019-06-26T09:57:50.584Z,99035.58
2019-06-26T10:00:24.615Z,99035.80
2019-06-26T10:02:58.511Z,99038.04
2019-06-26T10:05:32.375Z,99033.79
2019-06-26T10:08:06.180Z,99028.30
2019-06-26T10:10:40.113Z,99028.11
2019-06-26T10:13:13.849Z,99032.06
2019-06-26T10:15:47.733Z,99029.47
2019-06-26T10:18:22.121Z,99026.67
2019-06-26T10:20:55.845Z,99020.94
2019-06-26T10:23:29.645Z,99021.12
2019-06-26T10:26:03.502Z,99002.59
2019-06-26T10:28:37.348Z,99002.48
2019-06-26T10:31:11.213Z,99006.02
2019-06-26T10:33:44.939Z,98995.73
2019-06-26T10:36:20.206Z,99000.50
2019-06-26T10:38:53.969Z,98992.31
2019-06-26T10:41:27.735Z,98993.14
2019-06-26T10:44:01.997Z,98999.23
2019-06-26T10:46:37.146Z,98977.53
2019-06-26T10:49:26.448Z,98994.45
2019-06-26T10:51:49.274Z,98988.13
2019-06-26T10:54:24.822Z,98992.39
2019-06-26T10:56:59.967Z,98978.40
2019-06-26T10:59:33.761Z,98976.92
2019-06-26T11:02:07.619Z,98973.52
2019-06-26T11:04:42.052Z,98978.03
2019-06-26T11:07:15.959Z,98971.25
2019-06-26T11:09:50.781Z,98973.69
2019-06-26T11:12:24.668Z,98961.36
2019-06-26T11:14:59.485Z,98963.66
2019-06-26T11:17:33.620Z,98963.72
2019-06-26T11:20:08.435Z,98955.89
2019-06-26T11:22:42.487Z,98961.91
2019-06-26T11:25:16.940Z,98943.25
2019-06-26T11:27:50.684Z,98943.16
2019-06-26T11:30:25.765Z,98940.16
2019-06-26T11:32:59.498Z,98932.50
2019-06-26T11:35:33.252Z,98932.99
2019-06-26T11:38:07.277Z,98926.55
2019-06-26T11:40:41.000Z,98927.56
2019-06-26T11:43:14.587Z,98928.02
2019-06-26T11:45:48.455Z,98918.71
2019-06-26T11:48:22.235Z,98926.85
2019-06-26T11:50:56.106Z,98920.29
2019-06-26T11:53:29.943Z,98914.23
2019-06-26T11:56:03.611Z,98920.41
2019-06-26T11:58:37.493Z,98911.78
2019-06-26T12:01:11.114Z,98906.20
2019-06-26T12:03:45.108Z,98896.00
2019-06-26T12:06:19.484Z,98892.80
2019-06-26T12:08:53.294Z,98892.87
2019-06-26T12:11:27.013Z,98894.00
2019-06-26T12:14:00.789Z,98885.97
2019-06-26T12:16:34.616Z,98888.49
2019-06-26T12:19:08.318Z,98885.90
2019-06-26T12:21:42.488Z,98886.91
2019-06-26T12:24:16.341Z,98881.41
2019-06-26T12:26:49.996Z,98888.38
2019-06-26T12:29:24.588Z,98878.70
2019-06-26T12:31:58.506Z,98887.97
2019-06-26T12:34:32.297Z,98885.78
2019-06-26T12:37:06.062Z,98875.56
2019-06-26T12:39:39.724Z,98867.80
2019-06-26T12:42:13.466Z,98869.91
2019-06-26T12:44:47.315Z,98868.37
2019-06-26T12:47:21.051Z,98864.41
2019-06-26T12:49:54.726Z,98865.35
2019-06-26T12:52:30.029Z,98859.70
2019-06-26T12:55:04.066Z,98859.01
2019-06-26T12:57:37.737Z,98861.17
2019-06-26T13:00:11.775Z,98857.63
2019-06-26T13:02:46.241Z,98853.94
2019-06-26T13:05:19.961Z,98850.20
2019-06-26T13:07:54.058Z,98843.33
2019-06-26T13:10:27.773Z,98849.40
2019-06-26T13:13:02.009Z,98843.22
2019-06-26T13:15:36.041Z,98848.56
2019-06-26T13:18:09.892Z,98839.17
2019-06-26T13:20:52.829Z,98831.55
2019-06-26T13:23:19.058Z,98827.59
2019-06-26T13:25:52.885Z,98828.41
2019-06-26T13:28:26.859Z,98828.83
2019-06-26T13:31:00.562Z,98822.77
2019-06-26T13:33:34.369Z,98823.61
2019-06-26T13:36:08.147Z,98824.24
2019-06-26T13:38:42.894Z,98824.44
2019-06-26T13:41:16.635Z,98821.64
2019-06-26T13:43:50.478Z,98808.98
2019-06-26T13:46:24.488Z,98809.84
2019-06-26T13:48:58.313Z,98811.80
2019-06-26T13:51:32.473Z,98807.73
2019-06-26T13:54:07.025Z,98807.13
2019-06-26T13:56:40.668Z,98807.33
2019-06-26T13:59:14.403Z,98811.42
2019-06-26T14:01:48.172Z,98797.72
2019-06-26T14:04:22.305Z,98806.16
2019-06-26T14:06:55.968Z,98800.33
2019-06-26T14:09:29.601Z,98804.42
2019-06-26T14:12:03.472Z,98793.84
2019-06-26T14:14:55.899Z,98799.02
2019-06-26T14:17:13.013Z,98789.61
2019-06-26T14:19:46.626Z,98788.78
2019-06-26T14:22:20.677Z,98782.92
2019-06-26T14:24:54.476Z,98772.46
2019-06-26T14:27:28.282Z,98772.90
2019-06-26T14:30:02.425Z,98769.23
2019-06-26T14:32:36.222Z,98771.84
2019-06-26T14:35:09.994Z,98773.08
2019-06-26T14:37:43.812Z,98769.63
2019-06-26T14:40:36.909Z,98761.17
2019-06-26T14:43:10.754Z,98757.53
2019-06-26T14:45:44.657Z,98750.72
2019-06-26T14:48:18.518Z,98758.56
2019-06-26T14:50:52.502Z,98757.11
2019-06-26T14:53:26.402Z,98748.33
2019-06-26T14:56:00.366Z,98751.87
2019-06-26T14:58:36.261Z,98749.80
2019-06-26T15:01:09.917Z,98746.84
2019-06-26T15:03:43.877Z,98741.09
2019-06-26T15:06:18.067Z,98738.92
2019-06-26T15:08:52.324Z,98741.91
2019-06-26T15:11:26.058Z,98728.66
2019-06-26T15:13:59.852Z,98728.86
2019-06-26T15:16:33.578Z,98731.28
2019-06-26T15:19:07.476Z,98723.32
2019-06-26T15:21:54.171Z,98719.05
2019-06-26T15:24:17.164Z,98719.34
2019-06-26T15:26:51.233Z,98716.43
2019-06-26T15:29:25.000Z,98715.13
2019-06-26T15:31:58.863Z,98713.58
2019-06-26T15:34:32.871Z,98707.22
2019-06-26T15:37:06.693Z,98712.37
2019-06-26T15:39:40.545Z,98706.39
2019-06-26T15:42:14.740Z,98704.44
2019-06-26T15:44:49.864Z,98701.98
2019-06-26T15:47:23.775Z,98695.13
2019-06-26T15:49:57.486Z,98697.03
2019-06-26T15:52:31.633Z,98691.11
2019-06-26T15:55:07.178Z,98691.11
2019-06-26T15:57:40.832Z,98688.79
2019-06-26T16:00:14.514Z,98692.33
2019-06-26T16:02:48.335Z,98687.28
2019-06-26T16:05:22.315Z,98686.02
2019-06-26T16:07:57.600Z,98677.34
2019-06-26T16:10:34.425Z,98682.59
2019-06-26T16:13:07.063Z,98679.45
2019-06-26T16:15:40.880Z,98681.21
2019-06-26T16:18:20.107Z,98676.23
2019-06-26T16:20:53.826Z,98681.74
2019-06-26T16:23:27.850Z,98674.20
2019-06-26T16:26:02.953Z,98673.59
2019-06-26T16:28:36.819Z,98676.55
2019-06-26T16:31:10.619Z,98676.12
2019-06-26T16:33:46.287Z,98671.84
2019-06-26T16:36:20.012Z,98670.48
2019-06-26T16:38:53.793Z,98668.10
2019-06-26T16:41:27.529Z,98662.96
2019-06-26T16:44:01.382Z,98661.60
2019-06-26T16:46:35.191Z,98670.58
2019-06-26T16:49:09.021Z,98662.77
2019-06-26T16:51:42.822Z,98664.85
2019-06-26T16:54:18.044Z,98658.98
2019-06-26T16:56:52.153Z,98664.91
2019-06-26T16:59:26.043Z,98666.17
2019-06-26T17:01:59.843Z,98664.71
2019-06-26T17:04:33.558Z,98658.99
2019-06-26T17:07:07.345Z,98658.99
2019-06-26T17:09:44.409Z,98660.88
2019-06-26T17:12:18.292Z,98653.16
2019-06-26T17:14:52.251Z,98650.48
2019-06-26T17:17:26.163Z,98649.62
2019-06-26T17:20:00.227Z,98653.26
2019-06-26T17:22:34.039Z,98644.75
2019-06-26T17:25:07.878Z,98646.94
2019-06-26T17:27:41.652Z,98645.05
2019-06-26T17:30:15.270Z,98650.70
2019-06-26T17:32:48.985Z,98642.45
2019-06-26T17:35:22.826Z,98637.84
2019-06-26T17:37:56.595Z,98639.44
2019-06-26T17:40:30.363Z,98634.39
2019-06-26T17:43:12.257Z,98640.89
2019-06-26T17:45:39.701Z,98632.16
2019-06-26T17:48:13.587Z,98638.77
2019-06-26T17:50:47.320Z,98637.72
2019-06-26T17:53:22.278Z,98641.09
2019-06-26T17:55:56.271Z,98632.20
2019-06-26T17:58:29.960Z,98638.55
2019-06-26T18:01:03.927Z,98632.42
2019-06-26T18:03:37.694Z,98627.82
2019-06-26T18:06:12.006Z,98634.61
2019-06-26T18:08:45.795Z,98633.25
2019-06-26T18:11:19.715Z,98632.00
2019-06-26T18:13:53.500Z,98634.71
2019-06-26T18:16:27.167Z,98630.21
2019-06-26T18:19:00.917Z,98630.30
2019-06-26T18:21:34.595Z,98626.32
2019-06-26T18:24:08.420Z,98625.17
2019-06-26T18:26:42.208Z,98632.94
2019-06-26T18:29:15.965Z,98633.16
2019-06-26T18:31:49.608Z,98635.05
2019-06-26T18:34:23.423Z,98635.98
2019-06-26T18:36:57.256Z,98635.44
2019-06-26T18:39:30.995Z,98637.14
2019-06-26T18:42:04.754Z,98636.95
2019-06-26T18:44:40.363Z,98633.17
2019-06-26T18:47:14.667Z,98637.05
2019-06-26T18:49:48.471Z,98637.44
2019-06-26T18:52:22.463Z,98632.45
2019-06-26T18:55:03.744Z,98631.81
2019-06-26T18:57:37.417Z,98626.38
2019-06-26T19:00:12.300Z,98636.95
2019-06-26T19:03:39.718Z,98631.03
2019-06-26T19:06:30.845Z,98635.80
2019-06-26T19:09:05.604Z,98632.88
2019-06-26T19:11:39.485Z,98634.78
2019-06-26T19:14:13.151Z,98639.05
2019-06-26T19:16:49.157Z,98633.31
2019-06-26T19:19:22.861Z,98638.36
2019-06-26T19:22:50.717Z,98634.05
2019-06-26T19:26:18.097Z,98631.86
2019-06-26T19:29:45.984Z,98637.92
2019-06-26T19:33:13.266Z,98632.16
2019-06-26T19:35:49.862Z,98630.59
2019-06-26T19:38:23.616Z,98626.63
2019-06-26T19:40:57.326Z,98623.61
2019-06-26T19:43:39.917Z,98622.26
2019-06-26T19:46:13.741Z,98624.67
2019-06-26T19:52:06.797Z,98627.06
2019-06-26T19:54:40.731Z,98618.91
2019-06-26T19:57:15.162Z,98621.72
2019-06-26T19:59:49.159Z,98620.80
2019-06-26T20:02:24.024Z,98619.97
2019-06-26T20:04:58.016Z,98619.45
2019-06-26T20:07:32.038Z,98611.50
2019-06-26T20:10:06.037Z,98610.58
2019-06-26T20:12:39.948Z,98609.22
2019-06-26T20:15:14.066Z,98612.99
2019-06-26T20:17:49.018Z,98608.28
2019-06-26T20:20:23.322Z,98606.00
2019-06-26T20:22:57.029Z,98609.02
2019-06-26T20:25:31.138Z,98603.43
2019-06-26T20:28:06.347Z,98609.45
2019-06-26T20:30:40.455Z,98607.76
2019-06-26T20:33:14.623Z,98607.80
2019-06-26T20:36:10.131Z,98601.84
2019-06-26T20:38:45.247Z,98598.00
2019-06-26T20:41:19.164Z,98604.35
2019-06-26T20:43:53.056Z,98594.84
2019-06-26T20:47:20.537Z,98600.91
2019-06-26T20:49:55.732Z,98592.67
2019-06-26T20:52:29.727Z,98591.94
2019-06-26T20:55:03.522Z,98595.92
2019-06-26T20:57:37.351Z,98590.87
2019-06-26T21:00:12.163Z,98581.91
2019-06-26T21:03:40.094Z,98590.69
2019-06-26T21:06:32.487Z,98586.94
2019-06-26T21:09:06.856Z,98587.05
2019-06-26T21:11:41.448Z,98587.48
2019-06-26T21:14:15.256Z,98582.16
2019-06-26T21:16:55.214Z,98585.93
2019-06-26T21:19:29.285Z,98588.81
2019-06-26T21:22:02.997Z,98593.55
2019-06-26T21:24:36.797Z,98591.76
2019-06-26T21:27:10.752Z,98593.41
2019-06-26T21:29:44.472Z,98591.06
2019-06-26T21:32:18.307Z,98589.13
2019-06-26T21:34:51.933Z,98582.78
2019-06-26T21:37:25.844Z,98582.16
2019-06-26T21:39:59.558Z,98580.20
2019-06-26T21:42:33.528Z,98584.14
2019-06-26T21:45:07.331Z,98585.41
2019-06-26T21:47:41.850Z,98587.28
2019-06-26T21:50:15.756Z,98577.55
2019-06-26T21:52:49.754Z,98571.59
2019-06-26T21:55:34.154Z,98570.38
2019-06-26T21:58:01.798Z,98574.68
2019-06-26T22:00:36.864Z,98562.76
2019-06-26T22:03:10.789Z,98564.45
2019-06-26T22:05:44.503Z,98562.03
2019-06-26T22:08:18.342Z,98566.50
2019-06-26T22:10:52.364Z,98560.28
2019-06-26T22:13:26.131Z,98558.00
2019-06-26T22:15:59.980Z,98545.98
2019-06-26T22:18:33.750Z,98548.36
2019-06-26T22:21:07.478Z,98543.02
2019-06-26T22:23:41.802Z,98548.66
2019-06-26T22:26:15.552Z,98543.56
2019-06-26T22:28:49.463Z,98540.64
2019-06-26T22:31:23.173Z,98535.75
2019-06-26T22:33:56.879Z,98539.09
2019-06-26T22:36:30.754Z,98536.48
2019-06-26T22:39:04.874Z,98540.05
2019-06-26T22:41:38.572Z,98534.92
2019-06-26T22:44:12.376Z,98525.22
2019-06-26T22:46:46.145Z,98530.08
2019-06-26T22:49:19.867Z,98526.44
2019-06-26T22:51:53.707Z,98526.74
2019-06-26T22:54:27.486Z,98525.91
2019-06-26T22:57:01.199Z,98519.17
2019-06-26T22:59:35.004Z,98523.05
2019-06-26T23:02:08.735Z,98519.80
2019-06-26T23:04:42.447Z,98516.26
2019-06-26T23:07:16.324Z,98512.44
2019-06-26T23:09:50.128Z,98507.98
2019-06-26T23:12:23.842Z,98513.94
2019-06-26T23:14:57.596Z,98518.83
2019-06-26T23:17:31.462Z,98517.57
2019-06-26T23:20:05.913Z,98514.43
2019-06-26T23:22:39.653Z,98511.02
2019-06-26T23:25:13.436Z,98515.09
2019-06-26T23:27:47.382Z,98507.98
2019-06-26T23:30:21.037Z,98510.64
2019-06-26T23:32:54.998Z,98515.00
2019-06-26T23:35:28.829Z,98509.52
2019-06-26T23:38:02.925Z,98513.05
2019-06-26T23:40:36.856Z,98515.72
2019-06-26T23:43:10.649Z,98514.66
2019-06-26T23:45:44.825Z,98503.58
2019-06-26T23:48:18.616Z,98506.28
2019-06-26T23:50:52.425Z,98507.97
2019-06-26T23:53:26.155Z,98508.50
2019-06-26T23:55:59.878Z,98511.22
2019-06-26T23:58:33.622Z,98512.68
